Garzon La Jagua Airport


Codes: SKGZ/GLJ
Name: Garzon La Jagua Airport
City: Garzon
Country: Colombia
Elevation: 2620 ft.

Photos at Garzon La Jagua Airport


   Photos courtesy of SpottingLog. You can add your own sightings and photos by signing up for a free trial today.



No photos found.

Weather at Garzon La Jagua Airport


Time (UTC)DescriptionTempratureWindCloud coverageVisibilityPressureHumidity
23-May-2024 21:00Light Rain28°C7 mph, S97%10000m1013hPa72%
24-May-2024 00:00Light Rain24°C4 mph, S89%10000m1014hPa85%
24-May-2024 03:00Overcast Clouds22°C4 mph, S95%10000m1016hPa90%
24-May-2024 06:00Light Rain21°C2 mph, S91%10000m1015hPa90%
24-May-2024 09:00Overcast Clouds20°C4 mph, S100%10000m1014hPa88%
24-May-2024 12:00Overcast Clouds22°C2 mph, S90%10000m1016hPa82%
24-May-2024 15:00Light Rain28°C0 mph, W23%10000m1015hPa64%
24-May-2024 18:00Light Rain29°C0 mph, S33%10000m1012hPa63%
24-May-2024 21:00Light Rain27°C4 mph, S75%10000m1011hPa78%
25-May-2024 00:00Light Rain22°C4 mph, S69%10000m1014hPa93%
25-May-2024 03:00Light Rain21°C4 mph, S63%10000m1016hPa94%
25-May-2024 06:00Light Rain21°C4 mph, S54%10000m1015hPa93%
25-May-2024 09:00Broken Clouds21°C4 mph, S76%10000m1014hPa92%
25-May-2024 12:00Overcast Clouds21°C2 mph, S89%10000m1016hPa90%
25-May-2024 15:00Light Rain26°C2 mph, SW90%10000m1016hPa76%
25-May-2024 18:00Light Rain24°C2 mph, SE92%10000m1013hPa87%
25-May-2024 21:00Light Rain25°C4 mph, S100%10000m1011hPa87%
26-May-2024 00:00Light Rain22°C4 mph, S91%10000m1014hPa92%
26-May-2024 03:00Light Rain22°C4 mph, S100%10000m1016hPa94%
26-May-2024 06:00Moderate Rain22°C4 mph, S100%1630m1015hPa99%
26-May-2024 09:00Heavy Intensity Rain21°C0 mph, S100%7753m1014hPa99%
26-May-2024 12:00Moderate Rain21°C0 mph, NE100%4921m1017hPa99%
26-May-2024 15:00Moderate Rain22°C0 mph, NE100%6837m1019hPa97%
26-May-2024 18:00Light Rain22°C2 mph, N100%10000m1016hPa95%
26-May-2024 21:00Light Rain23°C4 mph, NE100%10000m1014hPa93%
27-May-2024 00:00Overcast Clouds21°C2 mph, NE100%10000m1017hPa99%
27-May-2024 03:00Overcast Clouds21°C2 mph, S100%9809m1018hPa98%
27-May-2024 06:00Light Rain21°C2 mph, S100%10000m1016hPa97%
27-May-2024 09:00Overcast Clouds20°C4 mph, S100%10000m1015hPa96%
27-May-2024 12:00Overcast Clouds21°C2 mph, S90%10000m1017hPa92%
27-May-2024 15:00Light Rain25°C4 mph, S91%9917m1017hPa81%
27-May-2024 18:00Light Rain25°C7 mph, S96%7533m1015hPa83%
27-May-2024 21:00Light Rain23°C7 mph, SW95%10000m1014hPa90%
28-May-2024 00:00Light Rain21°C4 mph, S94%10000m1016hPa94%
28-May-2024 03:00Overcast Clouds21°C4 mph, S100%10000m1018hPa92%
28-May-2024 06:00Overcast Clouds21°C4 mph, S99%10000m1017hPa91%
28-May-2024 09:00Overcast Clouds21°C4 mph, S97%10000m1016hPa87%
28-May-2024 12:00Light Rain21°C4 mph, S99%10000m1018hPa91%
28-May-2024 15:00Light Rain23°C4 mph, SW99%10000m1018hPa85%
28-May-2024 18:00Light Rain26°C4 mph, SW92%10000m1015hPa74%